createdAt,value
2022-08-27T00:00:51.005Z,67.90
2022-08-27T00:02:22.808Z,68.22
2022-08-27T00:03:55.580Z,67.78
2022-08-27T00:05:27.368Z,68.29
2022-08-27T00:06:59.252Z,68.32
2022-08-27T00:08:31.272Z,68.71
2022-08-27T00:10:05.226Z,68.14
2022-08-27T00:11:38.091Z,67.76
2022-08-27T00:13:10.010Z,68.42
2022-08-27T00:14:41.884Z,68.44
2022-08-27T00:16:15.535Z,68.75
2022-08-27T00:17:48.205Z,68.18
2022-08-27T00:19:19.998Z,68.55
2022-08-27T00:20:51.890Z,68.45
2022-08-27T00:22:23.749Z,68.41
2022-08-27T00:23:55.558Z,67.91
2022-08-27T00:25:27.767Z,68.31
2022-08-27T00:26:59.807Z,68.20
2022-08-27T00:28:32.345Z,67.14
2022-08-27T00:30:06.392Z,67.73
2022-08-27T00:31:38.330Z,67.46
2022-08-27T00:33:10.395Z,67.11
2022-08-27T00:34:42.294Z,67.97
2022-08-27T00:36:14.575Z,67.15
2022-08-27T00:37:46.435Z,67.09
2022-08-27T00:39:18.334Z,67.50
2022-08-27T00:40:50.796Z,67.94
2022-08-27T00:42:25.347Z,67.35
2022-08-27T00:43:59.100Z,67.51
2022-08-27T00:45:33.624Z,67.09
2022-08-27T00:47:13.497Z,67.89
2022-08-27T00:48:46.017Z,67.47
2022-08-27T00:50:31.415Z,67.77
2022-08-27T00:52:08.287Z,67.87
2022-08-27T00:53:40.921Z,67.47
2022-08-27T00:55:16.141Z,67.94
2022-08-27T00:56:51.695Z,67.75
2022-08-27T00:58:33.187Z,68.12
2022-08-27T01:00:09.072Z,67.31
2022-08-27T01:02:01.805Z,67.29
2022-08-27T01:03:34.803Z,67.22
2022-08-27T01:05:10.938Z,67.14
2022-08-27T01:06:42.822Z,66.88
2022-08-27T01:08:18.364Z,67.68
2022-08-27T01:09:52.487Z,67.61
2022-08-27T01:11:25.395Z,67.38
2022-08-27T01:12:57.622Z,67.83
2022-08-27T01:14:30.214Z,66.93
2022-08-27T01:16:02.291Z,67.51
2022-08-27T01:17:34.908Z,67.57
2022-08-27T01:19:09.976Z,67.13
2022-08-27T01:20:50.952Z,67.69
2022-08-27T01:22:44.544Z,66.88
2022-08-27T01:24:29.540Z,67.25
2022-08-27T01:26:02.483Z,66.76
2022-08-27T01:27:34.446Z,66.48
2022-08-27T01:29:06.404Z,66.97
2022-08-27T01:30:38.549Z,67.02
2022-08-27T01:32:18.244Z,67.51
2022-08-27T01:34:02.023Z,67.11
2022-08-27T01:35:34.146Z,67.55
2022-08-27T01:37:12.552Z,66.88
2022-08-27T01:38:44.406Z,67.35
2022-08-27T01:40:17.485Z,66.40
2022-08-27T01:41:49.397Z,67.35
2022-08-27T01:43:24.289Z,67.57
2022-08-27T01:45:08.080Z,67.65
2022-08-27T01:46:40.218Z,67.09
2022-08-27T01:48:12.467Z,67.38
2022-08-27T01:49:44.626Z,66.47
2022-08-27T01:51:16.496Z,67.21
2022-08-27T01:52:49.125Z,66.83
2022-08-27T01:54:20.979Z,67.39
2022-08-27T01:55:54.280Z,66.68
2022-08-27T01:57:26.529Z,67.40
2022-08-27T01:58:58.333Z,67.64
2022-08-27T02:00:33.307Z,67.53
2022-08-27T02:02:05.870Z,67.01
2022-08-27T02:03:38.063Z,67.81
2022-08-27T02:05:10.624Z,67.68
2022-08-27T02:06:42.493Z,67.36
2022-08-27T02:08:16.781Z,67.51
2022-08-27T02:09:48.615Z,66.78
2022-08-27T02:11:20.422Z,67.37
2022-08-27T02:12:52.839Z,66.86
2022-08-27T02:14:25.247Z,67.08
2022-08-27T02:15:57.172Z,67.88
2022-08-27T02:17:29.033Z,67.73
2022-08-27T02:19:01.281Z,67.65
2022-08-27T02:20:33.783Z,67.08
2022-08-27T02:22:05.593Z,67.67
2022-08-27T02:23:37.627Z,68.01
2022-08-27T02:25:12.336Z,67.38
2022-08-27T02:26:44.226Z,67.50
2022-08-27T02:28:16.484Z,68.27
2022-08-27T02:30:03.621Z,68.13
2022-08-27T02:31:42.143Z,68.51
2022-08-27T02:33:14.223Z,67.97
2022-08-27T02:34:54.240Z,68.12
2022-08-27T02:36:26.249Z,68.31
2022-08-27T02:37:58.552Z,68.62
2022-08-27T02:39:30.347Z,68.85
2022-08-27T02:41:02.933Z,68.31
2022-08-27T02:42:34.804Z,68.10
2022-08-27T02:44:10.383Z,68.02
2022-08-27T02:45:42.593Z,68.11
2022-08-27T02:47:15.535Z,67.75
2022-08-27T02:48:47.465Z,67.95
2022-08-27T02:50:19.371Z,67.49
2022-08-27T02:51:56.425Z,67.40
2022-08-27T02:53:28.664Z,67.18
2022-08-27T02:55:00.561Z,67.49
2022-08-27T02:56:32.455Z,68.27
2022-08-27T02:58:04.902Z,68.15
2022-08-27T02:59:37.448Z,67.86
2022-08-27T03:01:11.360Z,67.76
2022-08-27T03:02:45.793Z,68.35
2022-08-27T03:04:19.951Z,67.97
2022-08-27T03:05:52.760Z,68.12
2022-08-27T03:07:24.763Z,68.08
2022-08-27T03:08:56.617Z,68.00
2022-08-27T03:10:28.438Z,67.27
2022-08-27T03:12:00.522Z,67.92
2022-08-27T03:13:32.331Z,67.67
2022-08-27T03:15:09.516Z,68.00
2022-08-27T03:16:41.352Z,67.64
2022-08-27T03:18:19.162Z,67.42
2022-08-27T03:19:50.970Z,67.18
2022-08-27T03:21:25.534Z,68.37
2022-08-27T03:22:57.472Z,67.97
2022-08-27T03:24:29.573Z,67.38
2022-08-27T03:26:04.524Z,67.61
2022-08-27T03:27:36.523Z,68.02
2022-08-27T03:29:08.379Z,68.09
2022-08-27T03:30:40.948Z,67.08
2022-08-27T03:32:12.821Z,67.76
2022-08-27T03:33:44.615Z,68.10
2022-08-27T03:35:17.392Z,67.76
2022-08-27T03:36:49.094Z,67.50
2022-08-27T03:38:21.735Z,67.74
2022-08-27T03:39:53.663Z,67.98
2022-08-27T03:41:43.750Z,68.27
2022-08-27T03:43:20.552Z,68.28
2022-08-27T03:44:52.382Z,68.27
2022-08-27T03:46:28.060Z,67.73
2022-08-27T03:47:59.952Z,68.39
2022-08-27T03:49:32.077Z,67.56
2022-08-27T03:51:10.905Z,67.65
2022-08-27T03:52:42.782Z,68.43
2022-08-27T03:54:14.604Z,67.90
2022-08-27T03:55:47.352Z,67.84
2022-08-27T03:57:19.616Z,67.95
2022-08-27T03:58:51.456Z,67.87
2022-08-27T04:00:24.946Z,67.87
2022-08-27T04:01:57.046Z,68.09
2022-08-27T04:03:29.069Z,67.54
2022-08-27T04:05:00.895Z,67.73
2022-08-27T04:06:35.352Z,67.83
2022-08-27T04:08:07.239Z,67.53
2022-08-27T04:09:39.330Z,67.57
2022-08-27T04:11:11.838Z,67.31
2022-08-27T04:12:44.678Z,67.42
2022-08-27T04:14:24.700Z,67.48
2022-08-27T04:15:59.725Z,66.88
2022-08-27T04:17:32.114Z,67.86
2022-08-27T04:19:04.243Z,67.25
2022-08-27T04:20:36.570Z,67.11
2022-08-27T04:22:08.628Z,67.16
2022-08-27T04:23:41.810Z,66.87
2022-08-27T04:25:13.686Z,66.48
2022-08-27T04:26:47.678Z,66.51
2022-08-27T04:28:19.532Z,67.04
2022-08-27T04:29:59.683Z,67.25
2022-08-27T04:31:31.593Z,67.13
2022-08-27T04:33:03.476Z,67.45
2022-08-27T04:34:35.552Z,67.03
2022-08-27T04:36:10.149Z,67.00
2022-08-27T04:37:42.041Z,66.69
2022-08-27T04:39:14.406Z,67.05
2022-08-27T04:41:04.589Z,67.86
2022-08-27T04:42:36.435Z,67.07
2022-08-27T04:44:11.061Z,66.86
2022-08-27T04:45:44.620Z,67.05
2022-08-27T04:47:17.074Z,67.34
2022-08-27T04:48:49.147Z,66.94
2022-08-27T04:50:21.575Z,66.67
2022-08-27T04:52:02.971Z,66.64
2022-08-27T04:53:35.089Z,66.42
2022-08-27T04:55:07.672Z,66.95
2022-08-27T04:56:39.617Z,66.84
2022-08-27T04:58:11.820Z,67.02
2022-08-27T04:59:43.834Z,67.18
2022-08-27T05:01:17.746Z,66.37
2022-08-27T05:02:49.581Z,66.68
2022-08-27T05:04:21.474Z,66.51
2022-08-27T05:05:54.331Z,67.02
2022-08-27T05:07:26.154Z,67.02
2022-08-27T05:08:59.162Z,66.88
2022-08-27T05:10:31.297Z,66.37
2022-08-27T05:12:03.661Z,66.90
2022-08-27T05:13:35.755Z,66.79
2022-08-27T05:15:08.009Z,66.29
2022-08-27T05:16:40.028Z,66.97
2022-08-27T05:18:13.426Z,66.01
2022-08-27T05:19:45.241Z,67.07
2022-08-27T05:21:23.019Z,66.36
2022-08-27T05:22:54.817Z,66.88
2022-08-27T05:24:26.668Z,66.06
2022-08-27T05:25:58.910Z,66.89
2022-08-27T05:27:31.110Z,66.27
2022-08-27T05:29:04.898Z,66.57
2022-08-27T05:30:38.648Z,66.27
2022-08-27T05:32:10.870Z,66.51
2022-08-27T05:33:43.350Z,66.90
2022-08-27T05:35:15.873Z,66.58
2022-08-27T05:36:49.124Z,66.92
2022-08-27T05:38:21.714Z,66.76
2022-08-27T05:39:53.497Z,66.53
2022-08-27T05:41:34.081Z,66.65
2022-08-27T05:43:07.155Z,67.03
2022-08-27T05:44:41.368Z,66.76
2022-08-27T05:46:16.118Z,66.62
2022-08-27T05:47:48.297Z,66.66
2022-08-27T05:49:20.122Z,66.71
2022-08-27T05:50:51.947Z,66.36
2022-08-27T05:52:23.725Z,66.77
2022-08-27T05:54:00.186Z,66.59
2022-08-27T05:55:40.057Z,66.52
2022-08-27T05:57:11.966Z,66.12
2022-08-27T05:59:02.322Z,66.49
2022-08-27T06:01:00.406Z,66.30
2022-08-27T06:02:37.400Z,66.71
2022-08-27T06:04:09.779Z,66.73
2022-08-27T06:05:41.752Z,66.50
2022-08-27T06:07:13.990Z,66.62
2022-08-27T06:08:45.832Z,66.43
2022-08-27T06:10:17.717Z,66.40
2022-08-27T06:11:49.798Z,66.37
2022-08-27T06:13:21.647Z,66.67
2022-08-27T06:14:53.527Z,66.19
2022-08-27T06:16:28.085Z,66.44
2022-08-27T06:17:59.965Z,66.17
2022-08-27T06:19:31.914Z,66.93
2022-08-27T06:21:04.109Z,67.02
2022-08-27T06:22:35.986Z,66.90
2022-08-27T06:24:08.996Z,66.28
2022-08-27T06:25:41.168Z,66.30
2022-08-27T06:27:15.103Z,66.07
2022-08-27T06:28:47.359Z,65.34
2022-08-27T06:30:19.179Z,66.37
2022-08-27T06:31:52.673Z,66.50
2022-08-27T06:33:24.475Z,66.12
2022-08-27T06:34:56.383Z,66.49
2022-08-27T06:36:29.664Z,66.84
2022-08-27T06:38:04.113Z,67.03
2022-08-27T06:39:37.716Z,66.85
2022-08-27T06:41:16.562Z,66.89
2022-08-27T06:42:55.536Z,66.58
2022-08-27T06:44:27.391Z,66.18
2022-08-27T06:46:03.134Z,66.61
2022-08-27T06:47:36.227Z,66.45
2022-08-27T06:49:08.619Z,66.52
2022-08-27T06:50:41.775Z,66.48
2022-08-27T06:52:15.157Z,66.34
2022-08-27T06:53:47.593Z,66.05
2022-08-27T06:55:19.501Z,66.90
2022-08-27T06:56:51.328Z,66.45
2022-08-27T06:58:23.268Z,66.14
2022-08-27T06:59:55.122Z,66.58
2022-08-27T07:01:32.838Z,66.64
2022-08-27T07:03:06.461Z,66.21
2022-08-27T07:04:38.326Z,65.97
2022-08-27T07:06:11.950Z,66.31
2022-08-27T07:07:48.627Z,66.14
2022-08-27T07:09:21.000Z,66.09
2022-08-27T07:10:57.706Z,66.24
2022-08-27T07:12:30.748Z,65.93
2022-08-27T07:14:03.832Z,66.09
2022-08-27T07:15:38.939Z,65.21
2022-08-27T07:17:15.865Z,65.47
2022-08-27T07:18:50.204Z,65.40
2022-08-27T07:20:22.240Z,65.45
2022-08-27T07:21:54.089Z,65.97
2022-08-27T07:23:26.034Z,65.65
2022-08-27T07:24:57.882Z,65.13
2022-08-27T07:26:29.786Z,64.19
2022-08-27T07:28:01.689Z,64.50
2022-08-27T07:29:33.540Z,64.77
2022-08-27T07:31:06.482Z,65.25
2022-08-27T07:32:38.938Z,64.37
2022-08-27T07:34:10.868Z,64.03
2022-08-27T07:35:42.772Z,64.02
2022-08-27T07:37:15.171Z,64.99
2022-08-27T07:38:56.550Z,64.64
2022-08-27T07:40:33.882Z,64.27
2022-08-27T07:42:24.456Z,64.91
2022-08-27T07:44:14.828Z,64.93
2022-08-27T07:45:49.209Z,64.65
2022-08-27T07:47:21.496Z,64.63
2022-08-27T07:48:55.548Z,64.31
2022-08-27T07:50:27.339Z,64.30
2022-08-27T07:51:59.275Z,64.91
2022-08-27T07:53:33.729Z,64.14
2022-08-27T07:55:06.274Z,63.99
2022-08-27T07:56:38.137Z,64.56
2022-08-27T07:58:11.576Z,63.76
2022-08-27T07:59:44.487Z,64.08
2022-08-27T08:01:16.651Z,64.17
2022-08-27T08:02:49.624Z,63.43
2022-08-27T08:04:22.885Z,64.19
2022-08-27T08:05:56.075Z,64.48
2022-08-27T08:07:29.127Z,64.25
2022-08-27T08:09:01.158Z,64.16
2022-08-27T08:10:37.032Z,64.40
2022-08-27T08:12:08.926Z,64.17
2022-08-27T08:13:40.824Z,63.50
2022-08-27T08:15:12.879Z,64.20
2022-08-27T08:16:45.303Z,63.26
2022-08-27T08:18:17.235Z,63.37
2022-08-27T08:20:15.382Z,63.80
2022-08-27T08:21:42.921Z,63.43
2022-08-27T08:23:15.163Z,63.10
2022-08-27T08:24:46.981Z,62.81
2022-08-27T08:26:18.820Z,63.89
2022-08-27T08:27:50.801Z,63.87
2022-08-27T08:29:22.636Z,63.51
2022-08-27T08:30:54.801Z,63.53
2022-08-27T08:32:26.755Z,63.07
2022-08-27T08:33:58.802Z,62.86
2022-08-27T08:35:35.027Z,62.47
2022-08-27T08:37:14.759Z,63.10
2022-08-27T08:38:48.409Z,62.27
2022-08-27T08:40:40.540Z,62.55
2022-08-27T08:44:55.594Z,62.35
2022-08-27T08:46:40.460Z,62.57
2022-08-27T08:48:15.836Z,62.54
2022-08-27T08:50:04.813Z,62.93
2022-08-27T08:54:18.667Z,62.75
2022-08-27T08:55:56.818Z,62.24
2022-08-27T08:57:33.901Z,62.54
2022-08-27T08:59:17.085Z,62.17
2022-08-27T09:00:55.118Z,62.10
2022-08-27T09:02:27.498Z,62.00
2022-08-27T09:04:03.778Z,62.02
2022-08-27T09:05:37.941Z,61.58
2022-08-27T09:07:36.848Z,61.58
2022-08-27T09:09:16.585Z,61.90
2022-08-27T09:10:58.411Z,60.91
2022-08-27T09:12:32.657Z,60.88
2022-08-27T09:14:23.106Z,60.68
2022-08-27T09:15:59.168Z,61.05
2022-08-27T09:17:31.073Z,60.80
2022-08-27T09:19:06.032Z,60.92
2022-08-27T09:20:39.054Z,59.92
2022-08-27T09:22:42.537Z,60.25
2022-08-27T09:24:23.018Z,60.24
2022-08-27T09:25:54.869Z,59.74
2022-08-27T09:29:54.889Z,59.38
2022-08-27T09:31:26.925Z,59.67
2022-08-27T09:33:04.420Z,59.46
2022-08-27T09:34:38.788Z,58.68
2022-08-27T09:36:14.364Z,58.47
2022-08-27T09:37:48.728Z,58.44
2022-08-27T09:39:20.920Z,58.21
2022-08-27T09:43:15.616Z,57.30
2022-08-27T09:44:52.974Z,57.09
2022-08-27T09:46:26.877Z,55.99
2022-08-27T09:48:07.544Z,57.57
2022-08-27T09:49:41.420Z,58.32
2022-08-27T09:51:21.772Z,57.43
2022-08-27T09:52:59.320Z,58.19
2022-08-27T09:54:42.345Z,57.11
2022-08-27T09:56:29.114Z,57.49
2022-08-27T09:58:01.653Z,57.24
2022-08-27T10:02:32.086Z,56.76
2022-08-27T10:04:16.698Z,56.97
2022-08-27T10:05:51.021Z,57.59
2022-08-27T10:07:37.192Z,56.56
2022-08-27T10:09:15.006Z,56.56
2022-08-27T10:10:57.068Z,56.48
2022-08-27T10:12:34.591Z,56.98
2022-08-27T10:14:16.409Z,57.33
2022-08-27T10:16:00.574Z,55.84
2022-08-27T10:17:38.061Z,55.39
2022-08-27T10:19:35.733Z,55.64
2022-08-27T10:21:16.912Z,55.98
2022-08-27T10:23:08.562Z,56.16
2022-08-27T10:24:55.549Z,55.59
2022-08-27T10:26:34.353Z,56.11
2022-08-27T10:28:22.672Z,55.92
2022-08-27T10:30:33.099Z,54.87
2022-08-27T10:32:32.591Z,55.67
2022-08-27T10:34:04.417Z,55.36
2022-08-27T10:35:54.712Z,55.20
2022-08-27T10:40:16.476Z,54.86
2022-08-27T10:42:09.414Z,54.02
2022-08-27T10:46:27.987Z,54.32
2022-08-27T10:48:24.615Z,53.79
2022-08-27T10:50:40.133Z,53.77
2022-08-27T10:52:16.646Z,53.74
2022-08-27T10:54:06.338Z,54.90
2022-08-27T10:55:42.964Z,54.20
2022-08-27T10:57:58.929Z,53.71
2022-08-27T10:59:39.947Z,54.16
2022-08-27T11:01:39.462Z,54.13
2022-08-27T11:03:15.780Z,53.94
2022-08-27T11:04:55.615Z,54.16
2022-08-27T11:06:27.444Z,53.73
2022-08-27T11:08:08.151Z,53.52
2022-08-27T11:09:57.395Z,53.84
2022-08-27T11:14:30.119Z,51.50
2022-08-27T11:16:06.374Z,52.91
2022-08-27T11:18:01.876Z,52.88
2022-08-27T11:19:54.479Z,52.97
2022-08-27T11:21:36.081Z,53.37
2022-08-27T11:23:18.147Z,53.23
2022-08-27T11:25:21.183Z,53.35
2022-08-27T11:26:56.982Z,51.83
2022-08-27T11:28:39.746Z,51.46
2022-08-27T11:30:38.832Z,50.19
2022-08-27T11:32:50.660Z,49.76
2022-08-27T11:35:01.343Z,49.89
2022-08-27T11:37:04.148Z,51.12
2022-08-27T11:38:36.000Z,50.98
2022-08-27T11:40:32.201Z,51.46
2022-08-27T11:42:14.120Z,52.96
2022-08-27T11:43:47.544Z,53.26
2022-08-27T11:45:31.145Z,53.57
2022-08-27T11:47:10.796Z,54.64
2022-08-27T11:51:06.047Z,52.80
2022-08-27T11:52:40.865Z,52.48
2022-08-27T11:54:26.762Z,51.85
2022-08-27T11:55:59.031Z,51.68
2022-08-27T12:01:57.227Z,52.09
2022-08-27T12:03:33.952Z,51.92
2022-08-27T12:05:47.870Z,52.03
2022-08-27T12:07:21.900Z,50.53
2022-08-27T12:08:54.675Z,52.05
2022-08-27T12:10:43.027Z,51.86
2022-08-27T12:12:20.713Z,52.33
2022-08-27T12:14:12.479Z,51.49
2022-08-27T12:15:49.424Z,51.09
2022-08-27T12:17:36.425Z,50.11
2022-08-27T12:19:31.619Z,52.07
2022-08-27T12:21:15.624Z,51.37
2022-08-27T12:23:42.354Z,52.24
2022-08-27T12:27:56.509Z,55.28
2022-08-27T12:29:36.170Z,53.52
2022-08-27T12:31:11.279Z,50.41
2022-08-27T12:32:47.538Z,51.19
2022-08-27T12:34:21.197Z,54.35
2022-08-27T12:35:55.132Z,55.98
2022-08-27T12:37:43.544Z,55.08
2022-08-27T12:39:18.068Z,52.86
2022-08-27T12:40:55.675Z,53.75
2022-08-27T12:42:27.532Z,52.89
2022-08-27T12:44:07.984Z,52.57
2022-08-27T12:45:48.815Z,52.90
2022-08-27T12:47:20.758Z,53.60
2022-08-27T12:48:57.197Z,53.33
2022-08-27T12:50:30.705Z,52.92
2022-08-27T12:52:12.322Z,53.49
2022-08-27T12:53:52.670Z,50.48
2022-08-27T12:55:33.531Z,52.02
2022-08-27T12:57:30.623Z,52.09
2022-08-27T12:59:26.850Z,53.09
2022-08-27T13:07:42.983Z,51.46
2022-08-27T13:09:14.869Z,51.14
2022-08-27T13:10:46.751Z,50.29
2022-08-27T13:12:19.864Z,52.51
2022-08-27T13:13:53.226Z,52.17
2022-08-27T13:15:29.234Z,51.83
2022-08-27T13:17:07.989Z,51.23
2022-08-27T13:18:40.532Z,51.37
2022-08-27T13:20:14.975Z,50.42
2022-08-27T13:21:50.008Z,50.45
2022-08-27T13:23:24.203Z,50.79
2022-08-27T13:24:56.842Z,50.78
2022-08-27T13:26:30.248Z,50.46
2022-08-27T13:28:08.101Z,50.84
2022-08-27T13:29:41.460Z,47.46
2022-08-27T13:31:14.616Z,49.28
2022-08-27T13:32:46.538Z,47.73
2022-08-27T13:34:21.439Z,49.34
2022-08-27T13:35:53.604Z,48.75
2022-08-27T13:37:28.620Z,50.27
2022-08-27T13:39:02.669Z,49.97
2022-08-27T13:40:38.772Z,50.03
2022-08-27T13:42:10.610Z,48.88
2022-08-27T13:43:45.074Z,48.32
2022-08-27T13:45:17.481Z,49.15
2022-08-27T13:46:57.938Z,48.40
2022-08-27T13:48:29.882Z,46.50
2022-08-27T13:50:05.738Z,47.22
2022-08-27T13:51:38.198Z,48.83
2022-08-27T13:53:32.323Z,46.48
2022-08-27T13:55:10.206Z,46.12
2022-08-27T13:56:57.690Z,45.31
2022-08-27T13:58:32.335Z,48.39
2022-08-27T14:00:16.017Z,49.80
2022-08-27T14:02:03.160Z,49.62
2022-08-27T14:03:39.197Z,50.25
2022-08-27T14:05:12.918Z,47.75
2022-08-27T14:06:46.739Z,49.30
2022-08-27T14:08:20.182Z,48.89
2022-08-27T14:10:05.302Z,49.40
2022-08-27T14:11:37.285Z,48.55
2022-08-27T14:17:46.149Z,44.91
2022-08-27T14:19:36.210Z,45.12
2022-08-27T14:21:11.641Z,46.99
2022-08-27T14:22:45.307Z,47.43
2022-08-27T14:24:17.160Z,47.32
2022-08-27T14:25:49.012Z,48.94
2022-08-27T14:27:20.897Z,49.11
2022-08-27T14:28:53.487Z,48.14
2022-08-27T14:30:29.477Z,48.18
2022-08-27T14:32:02.085Z,46.84
2022-08-27T14:33:34.045Z,47.56
2022-08-27T14:35:06.417Z,48.63
2022-08-27T14:36:40.782Z,47.67
2022-08-27T14:38:15.570Z,47.73
2022-08-27T14:39:47.487Z,45.49
2022-08-27T14:41:21.658Z,45.31
2022-08-27T14:42:53.620Z,46.26
2022-08-27T14:44:26.105Z,48.13
2022-08-27T14:45:59.432Z,46.11
2022-08-27T14:52:00.032Z,47.67
2022-08-27T14:53:31.968Z,49.94
2022-08-27T14:55:06.798Z,47.56
2022-08-27T14:56:40.671Z,48.20
2022-08-27T14:58:14.071Z,48.14
2022-08-27T14:59:45.972Z,48.70
2022-08-27T15:01:18.516Z,49.75
2022-08-27T15:02:50.318Z,49.51
2022-08-27T15:04:23.956Z,49.56
2022-08-27T15:05:57.548Z,49.36
2022-08-27T15:07:30.052Z,50.19
2022-08-27T15:09:02.388Z,50.82
2022-08-27T15:10:34.174Z,50.12
2022-08-27T15:12:06.740Z,50.21
2022-08-27T15:13:47.176Z,50.20
2022-08-27T15:15:19.379Z,50.21
2022-08-27T15:16:52.896Z,49.71
2022-08-27T15:18:24.718Z,50.41
2022-08-27T15:19:56.534Z,49.43
2022-08-27T15:21:30.494Z,50.55
2022-08-27T15:23:02.772Z,49.82
2022-08-27T15:24:42.155Z,49.78
2022-08-27T15:26:13.958Z,49.87
2022-08-27T15:27:47.734Z,50.80
2022-08-27T15:29:20.038Z,50.66
2022-08-27T15:30:53.273Z,51.28
2022-08-27T15:32:30.287Z,50.05
2022-08-27T15:34:02.223Z,49.79
2022-08-27T15:35:34.714Z,50.20
2022-08-27T15:37:06.570Z,49.38
2022-08-27T15:38:38.716Z,50.81
2022-08-27T15:40:12.348Z,50.64
2022-08-27T15:42:05.127Z,49.71
2022-08-27T15:43:37.478Z,50.47
2022-08-27T15:45:11.549Z,49.34
2022-08-27T15:46:43.484Z,49.68
2022-08-27T15:48:15.416Z,49.78
2022-08-27T15:49:47.414Z,50.31
2022-08-27T15:51:25.491Z,49.88
2022-08-27T15:53:00.813Z,49.90
2022-08-27T15:54:32.737Z,49.80
2022-08-27T15:56:08.124Z,50.00
2022-08-27T15:57:40.274Z,50.19
2022-08-27T15:59:12.158Z,50.12
2022-08-27T16:00:46.649Z,50.18
2022-08-27T16:02:23.444Z,50.97
2022-08-27T16:03:55.967Z,50.75
2022-08-27T16:05:31.440Z,50.66
2022-08-27T16:07:03.348Z,50.80
2022-08-27T16:08:39.502Z,50.34
2022-08-27T16:10:17.680Z,50.25
2022-08-27T16:11:49.818Z,50.36
2022-08-27T16:13:25.136Z,50.45
2022-08-27T16:14:57.053Z,50.88
2022-08-27T16:16:31.446Z,50.70
2022-08-27T16:18:04.559Z,50.95
2022-08-27T16:19:37.690Z,50.68
2022-08-27T16:21:09.588Z,50.69
2022-08-27T16:22:42.112Z,50.96
2022-08-27T16:24:14.243Z,50.98
2022-08-27T16:25:46.243Z,50.58
2022-08-27T16:27:18.161Z,50.23
2022-08-27T16:28:50.066Z,51.02
2022-08-27T16:30:24.623Z,51.48
2022-08-27T16:32:01.283Z,51.46
2022-08-27T16:33:33.456Z,51.43
2022-08-27T16:35:07.383Z,51.17
2022-08-27T16:36:39.467Z,50.73
2022-08-27T16:38:12.384Z,51.89
2022-08-27T16:39:44.359Z,50.79
2022-08-27T16:41:17.104Z,51.33
2022-08-27T16:42:50.517Z,50.46
2022-08-27T16:44:26.190Z,50.40
2022-08-27T16:45:59.408Z,51.37
2022-08-27T16:47:31.338Z,51.25
2022-08-27T16:49:25.401Z,51.57
2022-08-27T16:50:58.803Z,51.50
2022-08-27T16:52:33.371Z,51.39
2022-08-27T16:54:06.332Z,50.91
2022-08-27T16:55:38.164Z,51.46
2022-08-27T16:57:10.222Z,51.19
2022-08-27T16:58:42.067Z,50.87
2022-08-27T17:00:14.253Z,51.23
2022-08-27T17:01:48.566Z,51.11
2022-08-27T17:03:22.344Z,51.14
2022-08-27T17:05:07.280Z,51.00
2022-08-27T17:06:46.200Z,51.66
2022-08-27T17:08:20.237Z,51.11
2022-08-27T17:09:52.573Z,51.21
2022-08-27T17:11:28.485Z,51.61
2022-08-27T17:13:00.813Z,51.54
2022-08-27T17:14:38.137Z,50.76
2022-08-27T17:16:10.365Z,51.77
2022-08-27T17:17:42.545Z,51.24
2022-08-27T17:19:18.259Z,51.85
2022-08-27T17:20:51.646Z,51.08
2022-08-27T17:22:23.421Z,52.17
2022-08-27T17:23:55.609Z,51.76
2022-08-27T17:25:30.213Z,51.10
2022-08-27T17:27:02.874Z,51.53
2022-08-27T17:28:36.639Z,51.41
2022-08-27T17:30:09.719Z,50.97
2022-08-27T17:31:42.796Z,52.08
2022-08-27T17:33:28.164Z,51.83
2022-08-27T17:35:03.706Z,51.59
2022-08-27T17:36:37.676Z,52.02
2022-08-27T17:38:10.046Z,52.81
2022-08-27T17:39:42.244Z,51.74
2022-08-27T17:41:19.148Z,52.74
2022-08-27T17:42:51.535Z,52.42
2022-08-27T17:44:33.165Z,52.50
2022-08-27T17:46:05.219Z,51.91
2022-08-27T17:47:37.109Z,51.76
2022-08-27T17:49:09.660Z,52.13
2022-08-27T17:50:42.660Z,52.11
2022-08-27T17:52:15.181Z,52.56
2022-08-27T17:53:49.819Z,52.75
2022-08-27T17:55:21.715Z,52.88
2022-08-27T17:56:53.727Z,52.65
2022-08-27T17:58:25.820Z,52.80
2022-08-27T18:00:01.482Z,52.49
2022-08-27T18:01:40.291Z,52.49
2022-08-27T18:03:18.055Z,52.75
2022-08-27T18:04:50.523Z,52.52
2022-08-27T18:06:22.481Z,52.24
2022-08-27T18:07:54.400Z,52.69
2022-08-27T18:09:26.384Z,53.38
2022-08-27T18:11:01.097Z,52.77
2022-08-27T18:12:33.546Z,52.26
2022-08-27T18:14:05.688Z,53.12
2022-08-27T18:15:41.242Z,52.83
2022-08-27T18:17:13.744Z,53.28
2022-08-27T18:18:46.883Z,52.20
2022-08-27T18:20:19.278Z,53.50
2022-08-27T18:21:52.240Z,52.52
2022-08-27T18:23:24.108Z,53.32
2022-08-27T18:24:55.967Z,53.08
2022-08-27T18:26:29.711Z,53.71
2022-08-27T18:28:04.723Z,53.64
2022-08-27T18:29:36.591Z,53.67
2022-08-27T18:31:10.015Z,53.53
2022-08-27T18:32:42.051Z,53.48
2022-08-27T18:34:17.622Z,53.21
2022-08-27T18:35:52.213Z,53.86
2022-08-27T18:37:24.263Z,54.01
2022-08-27T18:38:56.152Z,54.36
2022-08-27T18:40:31.353Z,54.16
2022-08-27T18:42:03.419Z,54.38
2022-08-27T18:43:35.373Z,54.75
2022-08-27T18:45:09.991Z,54.86
2022-08-27T18:46:41.870Z,54.28
2022-08-27T18:48:17.863Z,55.47
2022-08-27T18:49:49.895Z,54.73
2022-08-27T18:51:21.856Z,55.22
2022-08-27T18:52:55.202Z,55.26
2022-08-27T18:54:27.586Z,55.76
2022-08-27T18:56:00.331Z,55.45
2022-08-27T18:57:32.102Z,55.71
2022-08-27T18:59:07.271Z,55.89
2022-08-27T19:00:41.895Z,55.77
2022-08-27T19:02:18.702Z,55.70
2022-08-27T19:03:52.003Z,55.53
2022-08-27T19:05:26.537Z,55.25
2022-08-27T19:06:58.759Z,56.29
2022-08-27T19:08:30.742Z,55.30
2022-08-27T19:10:04.102Z,55.92
2022-08-27T19:11:36.746Z,55.61
2022-08-27T19:13:08.591Z,55.98
2022-08-27T19:14:44.821Z,55.70
2022-08-27T19:16:23.643Z,55.40
2022-08-27T19:17:57.433Z,56.22
2022-08-27T19:19:29.270Z,55.86
2022-08-27T19:21:01.477Z,55.54
2022-08-27T19:22:36.082Z,55.61
2022-08-27T19:24:08.831Z,56.69
2022-08-27T19:25:40.502Z,55.73
2022-08-27T19:27:12.523Z,55.83
2022-08-27T19:28:47.278Z,56.45
2022-08-27T19:30:19.167Z,57.09
2022-08-27T19:31:51.097Z,56.95
2022-08-27T19:33:23.144Z,56.58
2022-08-27T19:34:55.123Z,56.62
2022-08-27T19:36:27.516Z,56.55
2022-08-27T19:38:00.343Z,56.28
2022-08-27T19:39:34.810Z,56.83
2022-08-27T19:41:06.757Z,56.14
2022-08-27T19:42:38.937Z,56.72
2022-08-27T19:44:10.790Z,56.78
2022-08-27T19:45:45.427Z,56.51
2022-08-27T19:47:21.420Z,56.92
2022-08-27T19:48:53.575Z,56.78
2022-08-27T19:50:25.591Z,57.42
2022-08-27T19:51:57.549Z,57.51
2022-08-27T19:53:30.083Z,56.96
2022-08-27T19:55:17.078Z,57.56
2022-08-27T19:56:48.918Z,56.77
2022-08-27T19:58:20.941Z,57.43
2022-08-27T19:59:53.006Z,57.32
2022-08-27T20:01:25.324Z,57.62
2022-08-27T20:02:57.231Z,57.43
2022-08-27T20:04:32.911Z,57.01
2022-08-27T20:06:06.338Z,57.32
2022-08-27T20:07:38.272Z,57.84
2022-08-27T20:09:15.553Z,57.65
2022-08-27T20:10:47.811Z,57.37
2022-08-27T20:12:20.120Z,56.84
2022-08-27T20:13:52.055Z,57.19
2022-08-27T20:15:24.541Z,57.86
2022-08-27T20:16:56.559Z,57.36
2022-08-27T20:18:28.440Z,57.55
2022-08-27T20:20:00.491Z,57.53
2022-08-27T20:21:33.286Z,57.67
2022-08-27T20:23:05.474Z,57.76
2022-08-27T20:24:37.703Z,57.50
2022-08-27T20:26:09.627Z,58.10
2022-08-27T20:27:42.127Z,57.41
2022-08-27T20:29:14.946Z,58.00
2022-08-27T20:30:56.752Z,57.75
2022-08-27T20:32:30.197Z,57.52
2022-08-27T20:34:02.183Z,57.81
2022-08-27T20:35:34.054Z,57.63
2022-08-27T20:37:06.048Z,57.26
2022-08-27T20:38:38.179Z,57.59
2022-08-27T20:40:15.049Z,57.57
2022-08-27T20:41:47.067Z,57.16
2022-08-27T20:43:20.367Z,57.72
2022-08-27T20:44:52.281Z,57.12
2022-08-27T20:46:26.342Z,57.65
2022-08-27T20:47:59.149Z,56.51
2022-08-27T20:49:31.129Z,57.11
2022-08-27T20:51:02.971Z,57.26
2022-08-27T20:52:35.758Z,56.36
2022-08-27T20:54:07.638Z,57.50
2022-08-27T20:55:39.587Z,57.33
2022-08-27T20:57:11.377Z,56.97
2022-08-27T20:59:01.914Z,56.91
2022-08-27T21:00:35.435Z,56.63
2022-08-27T21:02:12.201Z,57.06
2022-08-27T21:03:44.401Z,56.78
2022-08-27T21:05:17.607Z,56.78
2022-08-27T21:06:49.481Z,57.47
2022-08-27T21:08:21.950Z,56.96
2022-08-27T21:09:56.554Z,57.42
2022-08-27T21:11:29.506Z,57.41
2022-08-27T21:13:04.725Z,57.23
2022-08-27T21:14:36.988Z,57.17
2022-08-27T21:16:09.463Z,57.53